Aviation Digital Data Service (ADDS)

Output produced by TAFs form (1517 UTC 23 October 2017)
found at http://www.aviationweather.gov/adds/tafs/
 
KAVL 231512Z 15010G19KT 3SM +RA BR OVC009 19/18 A2994 RMK AO2 P0007 T01890178
KAVL 231502Z 2315/2412 16014G25KT 3SM SHRA BR OVC008 
     TEMPO 2316/2319 1SM +TSRA BR OVC003CB 
     FM231900 17014G22KT 6SM -SHRA OVC008 WS020/16045KT 
     FM232100 21010KT P6SM -SHRA BKN025 
     FM240000 22008KT P6SM BKN040 
     FM240500 33008KT P6SM SCT050 BKN200 
     FM240900 34005KT 5SM BR SCT060